createdAt,value
2023-05-09T00:01:45.477Z,32.20
2023-05-09T00:04:12.553Z,33.10
2023-05-09T00:06:39.569Z,33.03
2023-05-09T00:09:06.740Z,33.42
2023-05-09T00:11:33.833Z,34.38
2023-05-09T00:14:02.452Z,33.05
2023-05-09T00:16:29.666Z,32.33
2023-05-09T00:18:57.997Z,31.95
2023-05-09T00:21:25.282Z,31.98
2023-05-09T00:23:52.239Z,32.70
2023-05-09T00:26:19.165Z,33.35
2023-05-09T00:28:47.379Z,31.42
2023-05-09T00:31:14.680Z,33.53
2023-05-09T00:33:41.692Z,31.33
2023-05-09T00:36:08.959Z,32.67
2023-05-09T00:38:35.958Z,31.88
2023-05-09T00:41:03.079Z,32.95
2023-05-09T00:43:30.539Z,32.13
2023-05-09T00:45:57.939Z,33.67
2023-05-09T00:48:25.164Z,33.22
2023-05-09T00:50:53.183Z,33.15
2023-05-09T00:53:20.945Z,35.17
2023-05-09T00:55:48.695Z,34.22
2023-05-09T00:58:16.784Z,34.05
2023-05-09T01:00:43.789Z,33.95
2023-05-09T01:03:11.233Z,34.25
2023-05-09T01:05:53.110Z,34.28
2023-05-09T01:08:49.723Z,32.08
2023-05-09T01:11:31.466Z,32.58
2023-05-09T01:14:20.467Z,33.00
2023-05-09T01:17:03.287Z,32.42
2023-05-09T01:20:00.993Z,32.47
2023-05-09T01:22:36.504Z,32.08
2023-05-09T01:25:53.242Z,31.13
2023-05-09T01:28:48.065Z,32.25
2023-05-09T01:33:48.759Z,33.28
2023-05-09T01:36:19.608Z,33.38
2023-05-09T01:38:51.928Z,35.35
2023-05-09T01:41:21.244Z,34.33
2023-05-09T01:43:51.625Z,34.08
2023-05-09T01:46:22.297Z,34.28
2023-05-09T01:48:50.875Z,34.53
2023-05-09T01:51:21.446Z,35.00
2023-05-09T01:53:51.304Z,35.70
2023-05-09T01:56:21.561Z,34.22
2023-05-09T01:58:51.787Z,34.35
2023-05-09T02:01:20.303Z,35.92
2023-05-09T02:03:52.459Z,34.95
2023-05-09T02:06:23.247Z,34.38
2023-05-09T02:08:51.146Z,33.47
2023-05-09T02:11:18.293Z,33.45
2023-05-09T02:13:45.344Z,34.90
2023-05-09T02:16:12.980Z,32.58
2023-05-09T02:18:39.998Z,32.97
2023-05-09T02:21:07.427Z,33.45
2023-05-09T02:23:35.637Z,32.10
2023-05-09T02:26:04.006Z,32.47
2023-05-09T02:28:32.262Z,31.48
2023-05-09T02:31:06.474Z,30.08
2023-05-09T02:33:38.111Z,32.20
2023-05-09T02:36:06.309Z,31.13
2023-05-09T02:38:35.154Z,31.85
2023-05-09T02:41:02.986Z,30.75
2023-05-09T02:43:29.929Z,32.78
2023-05-09T02:45:56.964Z,31.40
2023-05-09T02:48:24.323Z,30.33
2023-05-09T02:50:51.277Z,33.03
2023-05-09T02:53:18.366Z,30.60
2023-05-09T02:55:45.394Z,30.30
2023-05-09T02:58:13.992Z,30.08
2023-05-09T03:00:43.291Z,28.85
2023-05-09T03:03:11.904Z,29.42
2023-05-09T03:05:38.947Z,28.60
2023-05-09T03:08:06.212Z,28.45
2023-05-09T03:10:34.604Z,27.05
2023-05-09T03:13:01.718Z,28.02
2023-05-09T03:15:28.653Z,27.75
2023-05-09T03:17:59.440Z,27.70
2023-05-09T03:20:27.542Z,28.15
2023-05-09T03:22:54.670Z,26.13
2023-05-09T03:25:22.365Z,25.50
2023-05-09T03:27:49.487Z,26.42
2023-05-09T03:30:17.234Z,26.15
2023-05-09T03:32:46.348Z,26.33
2023-05-09T03:35:13.643Z,26.13
2023-05-09T03:37:40.855Z,26.73
2023-05-09T03:40:09.081Z,25.77
2023-05-09T03:42:43.019Z,26.77
2023-05-09T03:45:11.136Z,26.52
2023-05-09T03:47:38.745Z,27.70
2023-05-09T03:50:07.078Z,26.35
2023-05-09T03:52:35.066Z,26.83
2023-05-09T03:55:03.619Z,26.17
2023-05-09T03:57:37.760Z,25.90
2023-05-09T04:00:06.679Z,26.00
2023-05-09T04:02:42.347Z,25.88
2023-05-09T04:05:17.604Z,25.90
2023-05-09T04:07:45.625Z,26.98
2023-05-09T04:10:12.805Z,24.90
2023-05-09T04:12:39.873Z,26.13
2023-05-09T04:15:08.169Z,24.73
2023-05-09T04:17:35.884Z,24.23
2023-05-09T04:20:03.380Z,24.50
2023-05-09T04:22:30.631Z,25.55
2023-05-09T04:24:57.663Z,24.75
2023-05-09T04:27:24.949Z,24.13
2023-05-09T04:29:53.527Z,25.13
2023-05-09T04:32:22.525Z,24.98
2023-05-09T04:34:49.877Z,24.25
2023-05-09T04:37:22.029Z,23.40
2023-05-09T04:39:49.209Z,23.35
2023-05-09T04:42:25.278Z,23.08
2023-05-09T04:44:52.473Z,22.77
2023-05-09T04:47:21.858Z,24.27
2023-05-09T04:49:48.951Z,23.30
2023-05-09T04:52:16.873Z,21.92
2023-05-09T04:54:44.466Z,22.20
2023-05-09T04:57:17.825Z,22.70
2023-05-09T04:59:48.602Z,22.10
2023-05-09T05:02:16.084Z,22.63
2023-05-09T05:04:43.502Z,21.58
2023-05-09T05:07:10.651Z,20.60
2023-05-09T05:09:38.367Z,19.98
2023-05-09T05:12:09.335Z,20.58
2023-05-09T05:14:36.920Z,18.88
2023-05-09T05:17:06.004Z,19.33
2023-05-09T05:19:34.096Z,18.92
2023-05-09T05:22:02.357Z,18.35
2023-05-09T05:24:29.834Z,17.88
2023-05-09T05:26:57.205Z,18.17
2023-05-09T05:29:25.213Z,18.13
2023-05-09T05:31:52.367Z,17.02
2023-05-09T05:34:21.223Z,16.00
2023-05-09T05:36:48.200Z,17.40
2023-05-09T05:39:15.513Z,18.30
2023-05-09T05:41:42.536Z,16.67
2023-05-09T05:44:10.380Z,17.52
2023-05-09T05:46:38.488Z,16.88
2023-05-09T05:49:05.955Z,17.95
2023-05-09T05:51:34.185Z,17.88
2023-05-09T05:54:02.742Z,16.85
2023-05-09T05:56:31.287Z,16.98
2023-05-09T05:58:58.493Z,17.70
2023-05-09T06:01:25.699Z,17.88
2023-05-09T06:03:55.828Z,16.73
2023-05-09T06:06:27.343Z,17.52
2023-05-09T06:08:55.705Z,17.38
2023-05-09T06:11:23.585Z,17.17
2023-05-09T06:13:50.591Z,17.90
2023-05-09T06:16:19.885Z,18.98
2023-05-09T06:18:50.142Z,17.73
2023-05-09T06:21:17.159Z,17.52
2023-05-09T06:24:01.502Z,17.80
2023-05-09T06:26:31.473Z,17.55
2023-05-09T06:28:58.622Z,17.55
2023-05-09T06:31:26.179Z,17.48
2023-05-09T06:33:53.486Z,17.55
2023-05-09T06:36:20.535Z,17.08
2023-05-09T06:38:47.571Z,17.30
2023-05-09T06:41:14.592Z,16.63
2023-05-09T06:43:41.589Z,16.42
2023-05-09T06:46:08.617Z,15.80
2023-05-09T06:48:35.750Z,15.20
2023-05-09T06:51:02.986Z,16.92
2023-05-09T06:53:30.044Z,15.18
2023-05-09T06:55:57.293Z,15.00
2023-05-09T06:58:24.472Z,15.35
2023-05-09T07:00:51.651Z,14.40
2023-05-09T07:03:18.897Z,14.52
2023-05-09T07:05:46.062Z,14.32
2023-05-09T07:08:13.146Z,13.38
2023-05-09T07:10:40.487Z,13.50
2023-05-09T07:13:07.501Z,13.85
2023-05-09T07:15:41.871Z,13.43
2023-05-09T07:18:09.860Z,13.10
2023-05-09T07:20:36.967Z,12.93
2023-05-09T07:23:04.784Z,12.82
2023-05-09T07:25:31.841Z,12.20
2023-05-09T07:27:58.821Z,11.70
2023-05-09T07:30:26.007Z,13.38
2023-05-09T07:32:53.111Z,12.80
2023-05-09T07:35:21.085Z,12.07
2023-05-09T07:37:48.048Z,12.63
2023-05-09T07:40:15.797Z,12.05
2023-05-09T07:42:49.507Z,12.25
2023-05-09T07:45:17.051Z,12.15
2023-05-09T07:47:44.532Z,12.68
2023-05-09T07:50:11.548Z,12.65
2023-05-09T07:52:38.569Z,12.40
2023-05-09T07:55:06.685Z,11.65
2023-05-09T07:57:33.754Z,12.07
2023-05-09T08:00:00.905Z,11.07
2023-05-09T08:02:28.019Z,10.23
2023-05-09T08:04:55.089Z,10.50
2023-05-09T08:07:22.091Z,11.15
2023-05-09T08:09:49.068Z,11.10
2023-05-09T08:12:16.087Z,11.00
2023-05-09T08:14:43.161Z,10.20
2023-05-09T08:17:10.114Z,10.65
2023-05-09T08:19:37.103Z,9.90
2023-05-09T08:22:04.327Z,10.40
2023-05-09T08:24:32.646Z,10.80
2023-05-09T08:27:00.064Z,10.65
2023-05-09T08:29:27.173Z,9.77
2023-05-09T08:31:54.214Z,9.48
2023-05-09T08:34:21.407Z,9.52
2023-05-09T08:36:48.606Z,10.00
2023-05-09T08:39:15.596Z,10.60
2023-05-09T08:41:43.894Z,9.60
2023-05-09T08:44:11.218Z,9.05
2023-05-09T08:46:43.760Z,9.85
2023-05-09T08:49:11.360Z,9.75
2023-05-09T08:51:39.955Z,9.73
2023-05-09T08:54:07.493Z,10.18
2023-05-09T08:56:35.866Z,10.57
2023-05-09T08:59:05.605Z,9.68
2023-05-09T09:01:37.731Z,9.25
2023-05-09T09:04:07.823Z,10.52
2023-05-09T09:06:36.320Z,8.88
2023-05-09T09:09:07.101Z,8.50
2023-05-09T09:11:38.826Z,7.90
2023-05-09T09:14:20.161Z,7.70
2023-05-09T09:16:49.743Z,7.68
2023-05-09T09:19:18.827Z,7.60
2023-05-09T09:21:47.425Z,7.25
2023-05-09T09:24:19.905Z,7.45
2023-05-09T09:26:49.260Z,7.15
2023-05-09T09:29:18.805Z,8.60
2023-05-09T09:31:47.837Z,7.18
2023-05-09T09:34:22.808Z,7.75
2023-05-09T09:36:50.519Z,7.13
2023-05-09T09:39:17.712Z,6.47
2023-05-09T09:41:45.136Z,5.97
2023-05-09T09:44:18.978Z,6.03
2023-05-09T09:46:51.579Z,5.57
2023-05-09T09:49:27.167Z,5.20
2023-05-09T09:51:58.865Z,5.45
2023-05-09T09:54:27.613Z,4.97
2023-05-09T09:56:56.472Z,5.43
2023-05-09T09:59:26.536Z,4.72
2023-05-09T10:02:07.599Z,5.03
2023-05-09T10:04:38.832Z,5.35
2023-05-09T10:07:12.864Z,4.80
2023-05-09T10:09:43.793Z,4.75
2023-05-09T10:12:12.021Z,4.38
2023-05-09T10:14:42.971Z,5.88
2023-05-09T10:17:17.385Z,6.00
2023-05-09T10:19:48.658Z,5.25
2023-05-09T10:22:19.335Z,5.18
2023-05-09T10:24:57.662Z,5.55
2023-05-09T10:27:28.900Z,5.10
2023-05-09T10:30:22.441Z,4.78
2023-05-09T10:32:50.450Z,5.28
2023-05-09T10:35:20.549Z,5.82
2023-05-09T10:37:48.516Z,6.80
2023-05-09T10:40:16.007Z,5.40
2023-05-09T10:42:44.204Z,5.15
2023-05-09T10:45:13.446Z,4.50
2023-05-09T10:47:43.478Z,4.88
2023-05-09T10:50:15.308Z,3.80
2023-05-09T10:53:19.012Z,4.30
2023-05-09T10:55:51.671Z,4.40
2023-05-09T10:58:28.862Z,4.20
2023-05-09T11:00:59.745Z,4.50
2023-05-09T11:03:29.806Z,4.10
2023-05-09T11:05:58.672Z,3.70
2023-05-09T11:08:33.262Z,3.05
2023-05-09T11:11:07.418Z,3.20
2023-05-09T11:16:09.555Z,2.20
2023-05-09T11:18:52.001Z,2.33
2023-05-09T11:21:20.775Z,3.17
2023-05-09T11:23:49.082Z,2.97
2023-05-09T11:26:16.972Z,3.17
2023-05-09T11:28:53.799Z,3.05
2023-05-09T11:31:21.064Z,2.65
2023-05-09T11:33:55.137Z,2.83
2023-05-09T11:36:31.961Z,2.40
2023-05-09T11:39:09.030Z,2.53
2023-05-09T11:41:48.628Z,2.83
2023-05-09T11:44:18.359Z,2.88
2023-05-09T11:46:49.651Z,2.38
2023-05-09T11:49:17.213Z,2.28
2023-05-09T11:51:44.676Z,2.72
2023-05-09T11:54:13.633Z,2.65
2023-05-09T11:56:42.047Z,2.40
2023-05-09T11:59:10.542Z,1.92
2023-05-09T12:01:37.714Z,2.30
2023-05-09T12:04:08.054Z,2.10
2023-05-09T12:06:35.357Z,2.28
2023-05-09T12:09:02.567Z,3.22
2023-05-09T12:11:32.466Z,2.92
2023-05-09T12:13:59.599Z,4.00
2023-05-09T12:16:26.745Z,3.05
2023-05-09T12:18:54.306Z,3.30
2023-05-09T12:21:21.805Z,3.00
2023-05-09T12:23:51.266Z,3.75
2023-05-09T12:26:22.667Z,3.35
2023-05-09T12:28:50.729Z,3.67
2023-05-09T12:31:18.566Z,3.67
2023-05-09T12:33:45.950Z,3.95
2023-05-09T12:36:13.788Z,3.80
2023-05-09T12:38:41.192Z,3.78
2023-05-09T12:43:44.081Z,4.68
2023-05-09T12:46:11.295Z,4.10
2023-05-09T12:48:40.192Z,4.53
2023-05-09T12:51:08.082Z,3.90
2023-05-09T12:53:41.919Z,4.40
2023-05-09T12:56:23.562Z,3.92
2023-05-09T12:58:55.832Z,4.10
2023-05-09T13:01:29.888Z,4.00
2023-05-09T13:04:05.874Z,4.47
2023-05-09T13:06:35.628Z,4.90
2023-05-09T13:09:06.449Z,4.65
2023-05-09T13:11:33.734Z,5.43
2023-05-09T13:14:03.270Z,5.32
2023-05-09T13:16:30.429Z,5.18
2023-05-09T13:18:57.507Z,4.57
2023-05-09T13:21:24.797Z,2.95
2023-05-09T13:23:52.117Z,2.15
2023-05-09T13:26:19.459Z,2.10
2023-05-09T13:28:46.571Z,1.98
2023-05-09T13:31:13.831Z,1.90
2023-05-09T13:33:40.865Z,2.10
2023-05-09T13:36:08.008Z,1.83
2023-05-09T13:38:38.828Z,2.08
2023-05-09T13:41:07.262Z,1.95
2023-05-09T13:43:35.928Z,1.58
2023-05-09T13:46:03.434Z,2.20
2023-05-09T13:48:30.513Z,1.70
2023-05-09T13:50:59.506Z,1.85
2023-05-09T13:53:26.825Z,2.10
2023-05-09T13:55:53.946Z,2.25
2023-05-09T13:58:21.266Z,2.30
2023-05-09T14:00:48.393Z,2.10
2023-05-09T14:03:15.579Z,2.30
2023-05-09T14:05:42.898Z,2.20
2023-05-09T14:08:09.799Z,2.38
2023-05-09T14:10:37.191Z,2.00
2023-05-09T14:13:04.338Z,2.30
2023-05-09T14:15:32.300Z,2.42
2023-05-09T14:17:59.319Z,2.15
2023-05-09T14:20:27.600Z,2.50
2023-05-09T14:22:55.220Z,2.75
2023-05-09T14:25:22.650Z,2.22
2023-05-09T14:27:50.037Z,2.38
2023-05-09T14:30:17.290Z,2.53
2023-05-09T14:32:44.449Z,2.85
2023-05-09T14:35:11.590Z,2.45
2023-05-09T14:37:38.739Z,2.80
2023-05-09T14:40:07.068Z,2.30
2023-05-09T14:42:34.236Z,2.65
2023-05-09T14:45:01.239Z,2.63
2023-05-09T14:47:28.598Z,2.50
2023-05-09T14:49:56.026Z,3.00
2023-05-09T14:52:25.109Z,2.40
2023-05-09T14:54:52.252Z,2.90
2023-05-09T14:57:19.261Z,2.53
2023-05-09T14:59:46.288Z,3.00
2023-05-09T15:02:13.701Z,2.83
2023-05-09T15:04:43.673Z,2.85
2023-05-09T15:07:11.786Z,3.05
2023-05-09T15:09:38.779Z,3.17
2023-05-09T15:12:05.856Z,3.30
2023-05-09T15:14:32.894Z,2.65
2023-05-09T15:17:03.329Z,2.95
2023-05-09T15:19:35.716Z,3.05
2023-05-09T15:22:04.716Z,3.35
2023-05-09T15:24:31.848Z,3.60
2023-05-09T15:26:58.828Z,3.13
2023-05-09T15:29:26.000Z,3.00
2023-05-09T15:31:55.653Z,3.92
2023-05-09T15:34:22.866Z,3.60
2023-05-09T15:36:49.981Z,3.30
2023-05-09T15:39:17.033Z,3.22
2023-05-09T15:41:44.008Z,3.55
2023-05-09T15:44:11.606Z,3.47
2023-05-09T15:46:38.646Z,3.53
2023-05-09T15:49:05.682Z,3.38
2023-05-09T15:51:33.204Z,3.60
2023-05-09T15:54:00.296Z,3.47
2023-05-09T15:56:27.407Z,3.63
2023-05-09T15:58:54.362Z,3.42
2023-05-09T16:01:21.285Z,4.15
2023-05-09T16:03:48.481Z,4.03
2023-05-09T16:06:15.648Z,3.90
2023-05-09T16:08:42.637Z,4.00
2023-05-09T16:11:10.202Z,3.90
2023-05-09T16:13:37.399Z,3.88
2023-05-09T16:16:05.103Z,4.03
2023-05-09T16:18:32.086Z,3.92
2023-05-09T16:20:59.632Z,4.15
2023-05-09T16:23:26.668Z,4.05
2023-05-09T16:25:53.836Z,4.15
2023-05-09T16:28:23.451Z,4.50
2023-05-09T16:30:53.933Z,4.47
2023-05-09T16:33:21.100Z,4.53
2023-05-09T16:35:48.162Z,4.78
2023-05-09T16:38:15.159Z,5.47
2023-05-09T16:40:42.198Z,5.18
2023-05-09T16:43:09.212Z,5.60
2023-05-09T16:45:36.284Z,5.80
2023-05-09T16:48:03.435Z,5.43
2023-05-09T16:50:30.573Z,6.15
2023-05-09T16:52:57.518Z,5.95
2023-05-09T16:55:24.584Z,6.30
2023-05-09T16:57:51.554Z,6.38
2023-05-09T17:00:19.240Z,6.22
2023-05-09T17:02:46.316Z,6.40
2023-05-09T17:05:13.354Z,6.57
2023-05-09T17:07:40.318Z,6.85
2023-05-09T17:10:07.937Z,7.00
2023-05-09T17:12:35.228Z,6.88
2023-05-09T17:15:02.300Z,6.80
2023-05-09T17:17:29.490Z,7.05
2023-05-09T17:19:57.649Z,7.03
2023-05-09T17:22:24.825Z,6.97
2023-05-09T17:24:52.335Z,6.70
2023-05-09T17:27:19.675Z,6.85
2023-05-09T17:29:47.320Z,7.30
2023-05-09T17:32:15.619Z,7.15
2023-05-09T17:34:42.831Z,6.10
2023-05-09T17:37:09.749Z,7.03
2023-05-09T17:39:38.288Z,4.50
2023-05-09T17:42:05.632Z,3.67
2023-05-09T17:44:32.782Z,3.38
2023-05-09T17:47:01.105Z,3.88
2023-05-09T17:49:29.416Z,3.30
2023-05-09T17:51:56.904Z,3.40
2023-05-09T17:54:24.559Z,3.47
2023-05-09T17:56:59.135Z,3.58
2023-05-09T17:59:26.158Z,2.75
2023-05-09T18:01:54.292Z,2.60
2023-05-09T18:04:21.890Z,2.60
2023-05-09T18:06:49.876Z,2.80
2023-05-09T18:09:17.472Z,2.58
2023-05-09T18:11:44.552Z,3.00
2023-05-09T18:14:12.867Z,2.70
2023-05-09T18:16:39.965Z,2.65
2023-05-09T18:19:07.023Z,2.15
2023-05-09T18:21:34.174Z,2.10
2023-05-09T18:24:01.377Z,2.30
2023-05-09T18:26:28.736Z,2.17
2023-05-09T18:28:55.708Z,2.10
2023-05-09T18:31:22.781Z,2.70
2023-05-09T18:33:50.180Z,2.42
2023-05-09T18:36:17.562Z,2.65
2023-05-09T18:38:44.611Z,2.25
2023-05-09T18:41:12.689Z,2.40
2023-05-09T18:43:45.860Z,3.10
2023-05-09T18:46:18.109Z,2.90
2023-05-09T18:48:47.208Z,3.03
2023-05-09T18:51:14.669Z,2.80
2023-05-09T18:53:42.248Z,2.90
2023-05-09T18:56:09.430Z,3.28
2023-05-09T18:58:36.869Z,3.22
2023-05-09T19:01:04.902Z,3.58
2023-05-09T19:03:32.007Z,3.33
2023-05-09T19:05:59.841Z,3.15
2023-05-09T19:08:27.037Z,3.17
2023-05-09T19:10:54.082Z,3.40
2023-05-09T19:13:21.330Z,3.58
2023-05-09T19:15:48.413Z,3.40
2023-05-09T19:18:15.485Z,3.70
2023-05-09T19:20:46.355Z,3.92
2023-05-09T19:23:13.300Z,4.03
2023-05-09T19:25:42.640Z,3.90
2023-05-09T19:28:14.507Z,3.90
2023-05-09T19:30:41.642Z,4.63
2023-05-09T19:33:08.623Z,4.90
2023-05-09T19:35:36.507Z,5.55
2023-05-09T19:38:03.561Z,5.38
2023-05-09T19:40:30.542Z,6.72
2023-05-09T19:43:00.546Z,6.40
2023-05-09T19:45:27.610Z,6.68
2023-05-09T19:47:54.867Z,6.50
2023-05-09T19:50:22.248Z,6.68
2023-05-09T19:52:49.269Z,6.90
2023-05-09T19:55:16.338Z,6.68
2023-05-09T19:57:43.282Z,6.50
2023-05-09T20:00:11.039Z,6.55
2023-05-09T20:02:39.824Z,6.78
2023-05-09T20:05:07.248Z,6.72
2023-05-09T20:07:34.302Z,7.10
2023-05-09T20:10:01.517Z,7.32
2023-05-09T20:12:30.181Z,8.02
2023-05-09T20:14:57.613Z,7.95
2023-05-09T20:17:24.711Z,8.48
2023-05-09T20:19:51.865Z,8.07
2023-05-09T20:22:18.858Z,9.15
2023-05-09T20:24:46.260Z,9.70
2023-05-09T20:27:13.268Z,9.05
2023-05-09T20:29:40.410Z,9.15
2023-05-09T20:32:07.552Z,9.70
2023-05-09T20:34:34.619Z,9.88
2023-05-09T20:37:02.310Z,10.63
2023-05-09T20:39:29.414Z,10.25
2023-05-09T20:41:58.715Z,10.27
2023-05-09T20:44:25.769Z,10.85
2023-05-09T20:46:52.897Z,10.73
2023-05-09T20:49:19.995Z,10.52
2023-05-09T20:51:46.934Z,10.45
2023-05-09T20:54:14.204Z,11.18
2023-05-09T20:56:41.257Z,10.98
2023-05-09T20:59:08.614Z,11.65
2023-05-09T21:01:36.772Z,12.25
2023-05-09T21:04:05.575Z,12.45
2023-05-09T21:06:33.087Z,12.85
2023-05-09T21:09:00.440Z,13.07
2023-05-09T21:11:27.550Z,13.23
2023-05-09T21:13:54.642Z,13.13
2023-05-09T21:16:22.017Z,13.65
2023-05-09T21:18:49.168Z,13.60
2023-05-09T21:21:16.311Z,14.68
2023-05-09T21:23:43.355Z,13.73
2023-05-09T21:26:10.430Z,13.57
2023-05-09T21:28:37.515Z,13.80
2023-05-09T21:31:04.859Z,14.02
2023-05-09T21:33:31.947Z,13.68
2023-05-09T21:35:59.280Z,13.23
2023-05-09T21:38:26.397Z,13.95
2023-05-09T21:40:53.634Z,14.32
2023-05-09T21:43:20.736Z,13.77
2023-05-09T21:45:47.764Z,12.00
2023-05-09T21:48:14.946Z,12.80
2023-05-09T21:50:45.976Z,12.45
2023-05-09T21:53:13.822Z,11.25
2023-05-09T21:55:41.345Z,11.05
2023-05-09T21:58:08.341Z,11.95
2023-05-09T22:00:35.432Z,12.98
2023-05-09T22:03:02.531Z,12.98
2023-05-09T22:05:29.490Z,12.35
2023-05-09T22:07:56.427Z,13.73
2023-05-09T22:10:23.363Z,13.93
2023-05-09T22:12:50.299Z,14.15
2023-05-09T22:15:17.394Z,14.13
2023-05-09T22:17:44.468Z,14.65
2023-05-09T22:20:12.205Z,13.30
2023-05-09T22:22:39.163Z,14.73
2023-05-09T22:25:06.742Z,15.52
2023-05-09T22:27:33.694Z,15.70
2023-05-09T22:30:01.419Z,16.02
2023-05-09T22:32:28.494Z,16.80
2023-05-09T22:34:55.562Z,17.92
2023-05-09T22:37:22.552Z,17.40
2023-05-09T22:39:49.408Z,17.00
2023-05-09T22:42:16.391Z,18.67
2023-05-09T22:44:43.443Z,17.38
2023-05-09T22:47:10.533Z,16.85
2023-05-09T22:49:37.518Z,18.23
2023-05-09T22:52:04.764Z,17.95
2023-05-09T22:54:31.741Z,18.42
2023-05-09T22:56:58.743Z,19.48
2023-05-09T22:59:26.490Z,18.95
2023-05-09T23:01:53.564Z,19.50
2023-05-09T23:04:20.608Z,20.58
2023-05-09T23:06:48.704Z,21.15
2023-05-09T23:09:15.957Z,20.33
2023-05-09T23:11:42.980Z,20.67
2023-05-09T23:14:10.377Z,20.73
2023-05-09T23:16:37.368Z,21.38
2023-05-09T23:19:04.394Z,21.88
2023-05-09T23:21:31.509Z,22.20
2023-05-09T23:23:58.523Z,22.67
2023-05-09T23:26:25.550Z,23.15
2023-05-09T23:28:55.106Z,23.55
2023-05-09T23:31:22.173Z,24.55
2023-05-09T23:33:49.132Z,23.75
2023-05-09T23:36:16.111Z,25.27
2023-05-09T23:38:43.113Z,25.33
2023-05-09T23:41:10.089Z,25.33
2023-05-09T23:43:37.907Z,26.15
2023-05-09T23:46:04.900Z,26.63
2023-05-09T23:48:31.906Z,25.90
2023-05-09T23:50:58.903Z,26.80
2023-05-09T23:53:26.215Z,26.88
2023-05-09T23:55:53.263Z,25.65
2023-05-09T23:58:20.739Z,26.85
